Time;durP1;ratioP1;P1;durP2;ratioP2;P2;SDS_P1;SDS_P2;PMS_P1;PMS_P2;Temp;Humidity;BMP_temperature;BMP_pressure;BME280_temperature;BME280_humidity;BME280_pressure;Samples;Min_cycle;Max_cycle;Signal;HPM_P1;HPM_P2
2022/04/14 00:01:26;;;;;;;3.03;1.20;;;18.20;48.90;;;;;;6219741;23;20185;-86
2022/04/14 00:03:56;;;;;;;3.13;0.80;;;18.20;48.80;;;;;;6195008;23;20145;-86
2022/04/14 00:06:22;;;;;;;2.90;1.13;;;18.20;48.90;;;;;;6144444;23;20160;-86
2022/04/14 00:08:48;;;;;;;1.23;0.80;;;18.20;49.00;;;;;;6194665;23;20134;-87
2022/04/14 00:11:13;;;;;;;1.85;1.02;;;18.20;48.90;;;;;;6219653;23;20558;-86
2022/04/14 00:13:39;;;;;;;2.30;1.08;;;18.20;48.80;;;;;;6219472;23;20169;-87
2022/04/14 00:16:06;;;;;;;2.90;0.93;;;18.20;48.80;;;;;;6219898;23;20138;-86
2022/04/14 00:18:32;;;;;;;2.33;1.00;;;18.10;48.80;;;;;;6194511;23;20165;-86
2022/04/14 00:21:01;;;;;;;1.73;0.95;;;18.10;49.00;;;;;;6246266;23;20136;-86
2022/04/14 00:23:27;;;;;;;1.23;1.02;;;18.10;49.00;;;;;;6144460;23;20156;-87
2022/04/14 00:25:55;;;;;;;2.80;1.02;;;18.10;48.80;;;;;;6194360;23;20134;-87
2022/04/14 00:28:24;;;;;;;2.10;1.10;;;18.20;49.00;;;;;;6168938;23;20581;-86
2022/04/14 00:30:53;;;;;;;2.05;1.00;;;18.20;49.10;;;;;;6144499;23;20228;-87
2022/04/14 00:33:19;;;;;;;1.48;0.98;;;18.10;49.10;;;;;;6168524;23;20488;-86
2022/04/14 00:35:49;;;;;;;2.35;1.20;;;18.10;49.00;;;;;;6194306;23;20148;-87
2022/04/14 00:38:18;;;;;;;2.38;0.90;;;18.10;49.10;;;;;;6144584;23;20191;-87
2022/04/14 00:40:47;;;;;;;1.63;0.98;;;18.10;49.00;;;;;;6144395;23;20152;-87
2022/04/14 00:43:14;;;;;;;1.70;1.13;;;18.10;49.00;;;;;;6145921;23;20145;-86
2022/04/14 00:45:42;;;;;;;1.83;0.93;;;18.10;49.00;;;;;;6168853;23;20532;-86
2022/04/14 00:48:09;;;;;;;2.55;0.98;;;18.10;49.00;;;;;;6144766;23;20161;-87
2022/04/14 00:50:36;;;;;;;2.67;0.95;;;18.10;49.20;;;;;;6144080;23;20160;-87
2022/04/14 00:53:03;;;;;;;2.47;1.00;;;18.10;49.20;;;;;;6168484;23;20244;-86
2022/04/14 00:55:30;;;;;;;3.22;0.90;;;18.10;49.10;;;;;;6143785;23;20670;-86
2022/04/14 00:57:56;;;;;;;3.22;0.98;;;18.10;49.20;;;;;;6168565;23;20189;-86
2022/04/14 01:00:22;;;;;;;2.15;0.80;;;18.10;49.90;;;;;;6193912;23;20265;-86
2022/04/14 01:02:49;;;;;;;2.67;0.90;;;18.20;49.20;;;;;;6219587;23;20142;-86
2022/04/14 01:05:16;;;;;;;2.80;1.23;;;18.10;49.20;;;;;;6168407;23;20176;-87
2022/04/14 01:07:45;;;;;;;4.25;0.98;;;18.00;49.20;;;;;;6143905;23;20153;-87
2022/04/14 01:10:12;;;;;;;1.42;1.00;;;18.10;49.20;;;;;;6170137;23;20153;-87
2022/04/14 01:12:38;;;;;;;2.63;0.90;;;18.10;49.10;;;;;;6246191;23;20126;-86
2022/04/14 01:15:10;;;;;;;2.75;0.88;;;18.10;49.30;;;;;;6194153;23;20152;-86
2022/04/14 01:17:36;;;;;;;2.80;1.23;;;18.10;49.20;;;;;;6219350;23;20180;-86
2022/04/14 01:20:04;;;;;;;1.10;0.85;;;18.10;49.30;;;;;;6194203;23;20146;-87
2022/04/14 01:22:35;;;;;;;1.73;0.80;;;18.10;49.30;;;;;;6219059;23;20138;-87
2022/04/14 01:25:00;;;;;;;3.10;1.00;;;18.10;49.20;;;;;;6169490;23;20154;-86
2022/04/14 01:27:29;;;;;;;2.60;0.85;;;18.10;49.30;;;;;;6169686;23;20224;-86
2022/04/14 01:29:55;;;;;;;1.35;0.88;;;18.10;49.20;;;;;;6193970;23;20654;-86
2022/04/14 01:32:24;;;;;;;2.35;0.90;;;18.10;49.20;;;;;;6194712;23;20130;-86
2022/04/14 01:34:53;;;;;;;1.20;0.98;;;18.10;49.30;;;;;;6194228;23;20158;-86
2022/04/14 01:37:18;;;;;;;2.47;0.88;;;18.10;49.30;;;;;;6143656;23;20219;-86
2022/04/14 01:39:44;;;;;;;2.30;0.98;;;18.10;49.40;;;;;;6169674;23;20153;-87
2022/04/14 01:42:12;;;;;;;3.17;1.00;;;18.00;49.10;;;;;;6219508;23;20216;-86
2022/04/14 01:44:40;;;;;;;0.93;0.85;;;18.10;49.30;;;;;;6143985;23;20149;-86
2022/04/14 01:47:09;;;;;;;2.05;1.17;;;18.00;49.40;;;;;;6144144;23;20260;-86
2022/04/14 01:49:34;;;;;;;1.50;1.00;;;17.90;49.30;;;;;;6168695;23;20145;-86
2022/04/14 01:52:02;;;;;;;2.88;1.20;;;18.00;49.30;;;;;;6219055;23;20138;-87
2022/04/14 01:54:30;;;;;;;1.65;1.08;;;18.10;49.30;;;;;;6168952;23;20196;-86
2022/04/14 01:56:58;;;;;;;1.23;0.85;;;18.00;49.40;;;;;;6143919;23;20185;-87
2022/04/14 01:59:28;;;;;;;0.95;0.80;;;18.00;49.30;;;;;;6119970;23;20161;-86
2022/04/14 02:01:56;;;;;;;1.52;0.90;;;18.00;49.30;;;;;;6143733;23;20193;-87
2022/04/14 02:04:23;;;;;;;1.23;0.88;;;18.00;49.30;;;;;;6143770;23;20183;-86
2022/04/14 02:06:53;;;;;;;2.15;1.00;;;18.10;49.40;;;;;;6144159;23;20215;-87
2022/04/14 02:09:21;;;;;;;1.98;1.00;;;18.00;49.30;;;;;;6143745;23;20600;-86
2022/04/14 02:11:46;;;;;;;2.20;0.93;;;18.00;49.30;;;;;;6168387;23;20149;-87
2022/04/14 02:14:13;;;;;;;1.48;0.88;;;18.00;49.40;;;;;;6194570;23;20138;-86
2022/04/14 02:16:40;;;;;;;2.53;1.00;;;18.00;49.40;;;;;;6144951;23;20262;-86
2022/04/14 02:19:08;;;;;;;2.65;1.17;;;18.00;49.50;;;;;;6145952;23;20153;-86
2022/04/14 02:21:33;;;;;;;1.40;0.80;;;18.00;49.50;;;;;;6170383;23;20156;-85
2022/04/14 02:24:03;;;;;;;3.55;1.10;;;18.00;49.20;;;;;;6195953;23;20150;-86
2022/04/14 02:26:30;;;;;;;1.85;0.90;;;18.00;49.40;;;;;;6121288;23;20153;-86
2022/04/14 02:28:57;;;;;;;2.55;0.95;;;18.00;49.50;;;;;;6169598;23;20180;-86
2022/04/14 02:31:24;;;;;;;3.05;0.95;;;18.00;49.50;;;;;;6145265;23;20226;-86
2022/04/14 02:33:51;;;;;;;1.15;0.95;;;18.00;49.50;;;;;;6145035;23;20164;-87
2022/04/14 02:36:18;;;;;;;3.25;1.10;;;18.00;49.50;;;;;;6121155;23;20612;-87
2022/04/14 02:38:45;;;;;;;2.85;1.00;;;18.00;49.40;;;;;;6145242;23;20153;-86
2022/04/14 02:41:12;;;;;;;1.55;0.93;;;18.00;49.60;;;;;;6195841;23;20256;-86
2022/04/14 02:43:39;;;;;;;2.50;0.90;;;18.00;49.60;;;;;;6170102;23;20180;-85
2022/04/14 02:46:10;;;;;;;1.45;0.90;;;18.00;49.40;;;;;;6170115;23;20165;-86
2022/04/14 02:48:35;;;;;;;3.42;0.98;;;18.00;49.60;;;;;;6145086;23;20153;-86
2022/04/14 02:51:03;;;;;;;1.83;1.00;;;18.00;49.60;;;;;;6195261;23;20272;-86
2022/04/14 02:53:31;;;;;;;2.30;1.10;;;18.00;49.60;;;;;;6145503;23;20146;-86
2022/04/14 02:55:56;;;;;;;2.08;1.00;;;18.00;49.50;;;;;;6169956;23;20541;-86
2022/04/14 02:58:24;;;;;;;2.30;0.85;;;17.90;49.50;;;;;;6220707;23;20203;-86
2022/04/14 03:00:49;;;;;;;2.28;1.10;;;18.00;49.60;;;;;;6169540;23;20200;-86
2022/04/14 03:03:17;;;;;;;1.00;0.90;;;18.00;49.90;;;;;;6247286;23;20203;-86
2022/04/14 03:05:44;;;;;;;1.85;0.98;;;18.00;49.50;;;;;;6145107;23;20153;-86
2022/04/14 03:08:11;;;;;;;1.98;0.90;;;18.00;49.70;;;;;;6145511;23;20161;-86
2022/04/14 03:10:38;;;;;;;2.13;1.20;;;18.00;49.50;;;;;;6144628;23;20160;-86
2022/04/14 03:13:04;;;;;;;3.22;1.00;;;18.00;49.60;;;;;;6144951;23;20149;-85
2022/04/14 03:15:31;;;;;;;2.05;0.98;;;17.90;49.50;;;;;;6145069;23;20165;-85
2022/04/14 03:17:58;;;;;;;2.38;1.02;;;18.00;49.60;;;;;;6169359;23;20563;-87
2022/04/14 03:20:27;;;;;;;2.20;1.00;;;18.00;49.60;;;;;;6169930;23;20149;-86
2022/04/14 03:22:56;;;;;;;2.67;1.48;;;18.00;49.80;;;;;;6145397;23;20272;-86
2022/04/14 03:25:21;;;;;;;2.60;0.95;;;17.90;50.30;;;;;;6144795;23;20149;-86
2022/04/14 03:27:48;;;;;;;1.00;0.70;;;18.00;49.60;;;;;;6195321;23;20279;-86
2022/04/14 03:30:15;;;;;;;1.67;0.98;;;18.00;49.50;;;;;;6246778;23;20213;-86
2022/04/14 03:32:43;;;;;;;1.10;1.00;;;17.90;49.70;;;;;;6144487;23;20160;-86
2022/04/14 03:35:11;;;;;;;3.30;1.08;;;17.90;49.70;;;;;;6145683;23;20207;-86
2022/04/14 03:37:38;;;;;;;1.75;1.10;;;17.90;49.80;;;;;;6120366;23;20212;-86
2022/04/14 03:40:06;;;;;;;1.80;1.05;;;17.90;49.60;;;;;;6145424;23;20164;-86
2022/04/14 03:42:35;;;;;;;2.42;1.10;;;17.90;49.70;;;;;;6195269;23;20213;-86
2022/04/14 03:45:05;;;;;;;0.90;0.80;;;17.90;49.90;;;;;;6169388;23;20153;-86
2022/04/14 03:47:35;;;;;;;2.05;1.00;;;17.90;49.70;;;;;;6145185;23;20158;-87
2022/04/14 03:50:04;;;;;;;1.48;0.95;;;17.90;49.50;;;;;;6144932;23;20608;-86
2022/04/14 03:52:33;;;;;;;2.05;1.00;;;17.90;49.70;;;;;;6144538;23;20623;-86
2022/04/14 03:55:01;;;;;;;1.00;0.80;;;17.90;49.70;;;;;;6144622;23;20157;-86
2022/04/14 03:57:29;;;;;;;1.52;0.90;;;17.90;49.80;;;;;;6144498;23;20272;-85
2022/04/14 03:59:55;;;;;;;2.30;1.00;;;17.90;49.70;;;;;;6168914;23;20628;-86
2022/04/14 04:02:23;;;;;;;2.92;1.13;;;17.90;49.60;;;;;;6195204;23;20462;-85
2022/04/14 04:04:51;;;;;;;2.10;1.00;;;17.90;49.60;;;;;;6144387;23;20294;-87
2022/04/14 04:07:21;;;;;;;1.38;0.80;;;17.90;49.80;;;;;;6144573;23;20157;-86
2022/04/14 04:09:48;;;;;;;2.13;0.90;;;17.90;49.40;;;;;;6145063;23;20153;-86
2022/04/14 04:12:13;;;;;;;2.28;0.93;;;17.90;49.70;;;;;;6219983;23;20136;-87
2022/04/14 04:14:41;;;;;;;0.98;0.80;;;17.90;49.80;;;;;;6220043;23;20216;-86
2022/04/14 04:17:06;;;;;;;2.60;1.05;;;17.90;49.80;;;;;;6170772;23;20180;-86
2022/04/14 04:19:32;;;;;;;1.52;1.10;;;17.90;49.80;;;;;;6169709;23;20141;-85
2022/04/14 04:21:59;;;;;;;2.03;0.93;;;17.90;49.90;;;;;;6195094;23;20161;-86
2022/04/14 04:24:24;;;;;;;1.75;0.90;;;17.90;49.90;;;;;;6220064;23;20145;-86
2022/04/14 04:26:52;;;;;;;1.30;0.90;;;17.90;50.10;;;;;;6246241;23;20513;-85
2022/04/14 04:29:21;;;;;;;2.10;0.73;;;17.90;50.10;;;;;;6144645;23;20145;-86
2022/04/14 04:31:49;;;;;;;2.85;0.90;;;17.90;49.90;;;;;;6168777;23;20215;-86
2022/04/14 04:34:18;;;;;;;1.10;0.90;;;17.90;50.00;;;;;;6144405;23;20195;-85
2022/04/14 04:36:46;;;;;;;1.27;1.10;;;17.90;50.20;;;;;;6144154;23;20185;-86
2022/04/14 04:39:14;;;;;;;1.35;0.90;;;17.90;50.20;;;;;;6168651;23;20153;-86
2022/04/14 04:41:42;;;;;;;1.60;0.80;;;17.80;50.00;;;;;;6168915;23;20232;-86
2022/04/14 04:44:10;;;;;;;1.45;1.10;;;17.80;50.20;;;;;;6169515;23;20627;-85
2022/04/14 04:46:36;;;;;;;2.13;0.90;;;17.80;49.90;;;;;;6168611;23;20157;-86
2022/04/14 04:49:03;;;;;;;1.30;0.90;;;17.90;50.00;;;;;;6194462;23;20149;-86
2022/04/14 04:51:30;;;;;;;2.50;0.80;;;17.80;49.90;;;;;;6168826;23;20154;-85
2022/04/14 04:53:56;;;;;;;1.08;0.98;;;17.90;49.70;;;;;;6219529;23;20137;-86
2022/04/14 04:56:22;;;;;;;1.77;0.95;;;18.00;49.60;;;;;;6219856;23;20142;-85
2022/04/14 04:58:51;;;;;;;1.27;0.90;;;18.00;49.00;;;;;;6219136;23;20485;-86
2022/04/14 05:01:20;;;;;;;1.10;0.80;;;18.10;48.60;;;;;;6168038;23;20201;-86
2022/04/14 05:03:49;;;;;;;2.25;1.08;;;18.10;48.30;;;;;;6144223;23;20185;-86
2022/04/14 05:06:17;;;;;;;1.05;0.93;;;18.20;48.50;;;;;;6144118;23;20207;-86
2022/04/14 05:08:43;;;;;;;1.10;0.77;;;18.20;48.50;;;;;;6119428;23;20177;-86
2022/04/14 05:11:09;;;;;;;1.70;1.00;;;18.20;48.60;;;;;;6170115;23;20141;-85
2022/04/14 05:13:35;;;;;;;1.42;1.02;;;18.20;48.60;;;;;;6194316;23;20170;-86
2022/04/14 05:16:07;;;;;;;1.30;0.93;;;18.30;48.60;;;;;;6169682;23;20145;-87
2022/04/14 05:18:33;;;;;;;1.25;0.82;;;18.30;48.50;;;;;;6145295;23;20192;-86
2022/04/14 05:20:59;;;;;;;1.17;1.00;;;18.30;48.90;;;;;;6194213;23;20268;-86
2022/04/14 05:23:25;;;;;;;1.42;0.90;;;18.20;48.60;;;;;;6194991;23;20549;-86
2022/04/14 05:25:56;;;;;;;1.25;0.85;;;18.30;49.00;;;;;;6194477;23;20141;-85
2022/04/14 05:28:21;;;;;;;1.80;0.82;;;18.30;48.60;;;;;;6144398;23;20157;-85
2022/04/14 05:30:47;;;;;;;2.28;0.90;;;18.30;48.60;;;;;;6194148;23;20199;-84
2022/04/14 05:33:13;;;;;;;1.85;0.95;;;18.30;48.80;;;;;;6169046;23;20598;-84
2022/04/14 05:35:39;;;;;;;1.65;1.23;;;18.30;48.60;;;;;;6219369;23;20133;-85
2022/04/14 05:38:05;;;;;;;2.03;1.15;;;18.30;48.60;;;;;;6194451;23;20184;-85
2022/04/14 05:40:31;;;;;;;0.93;0.90;;;18.30;48.90;;;;;;6169496;23;20173;-84
2022/04/14 05:42:57;;;;;;;3.22;1.00;;;18.20;48.90;;;;;;6169285;23;20173;-84
2022/04/14 05:45:23;;;;;;;1.67;1.20;;;18.30;48.50;;;;;;6219299;23;20558;-84
2022/04/14 05:47:48;;;;;;;1.20;0.77;;;18.30;48.30;;;;;;6246157;23;20134;-85
2022/04/14 05:50:14;;;;;;;1.33;1.10;;;18.40;48.20;;;;;;6219496;23;20129;-84
2022/04/14 05:52:40;;;;;;;0.90;0.82;;;18.40;48.30;;;;;;6195686;23;20156;-84
2022/04/14 05:55:06;;;;;;;1.55;1.00;;;18.40;48.30;;;;;;6196057;23;20136;-84
2022/04/14 05:57:49;;;;;;;2.25;1.00;;;18.40;48.40;;;;;;6171033;23;20219;-86
2022/04/14 06:00:19;;;;;;;1.30;1.05;;;18.40;48.50;;;;;;6224389;23;20544;-84
2022/04/14 06:02:44;;;;;;;1.05;0.95;;;18.30;48.70;;;;;;6171968;23;20154;-85
2022/04/14 06:05:10;;;;;;;2.50;1.08;;;18.30;48.30;;;;;;6196376;23;20301;-85
2022/04/14 06:07:35;;;;;;;2.13;0.93;;;18.30;48.50;;;;;;6222024;23;20149;-85
2022/04/14 06:10:01;;;;;;;1.45;1.13;;;18.40;48.20;;;;;;6222921;23;20138;-85
2022/04/14 06:12:27;;;;;;;1.10;1.00;;;18.30;48.00;;;;;;6220540;23;20126;-85
2022/04/14 06:14:52;;;;;;;1.65;1.20;;;18.40;48.30;;;;;;6220193;23;20130;-84
2022/04/14 06:17:18;;;;;;;1.55;1.23;;;18.40;48.30;;;;;;6222401;23;20173;-85
2022/04/14 06:19:44;;;;;;;2.17;1.20;;;18.40;48.40;;;;;;6195226;23;20492;-85
2022/04/14 06:22:09;;;;;;;1.27;1.00;;;18.40;48.40;;;;;;6221446;23;20134;-85
2022/04/14 06:24:37;;;;;;;1.48;0.80;;;18.40;48.50;;;;;;6195434;23;20640;-85
2022/04/14 06:27:05;;;;;;;1.20;0.82;;;18.40;48.30;;;;;;6145758;23;20170;-85
2022/04/14 06:29:31;;;;;;;1.17;0.90;;;18.50;48.30;;;;;;6146524;23;20150;-86
2022/04/14 06:31:57;;;;;;;1.08;0.90;;;18.30;48.30;;;;;;6171000;23;20631;-85
2022/04/14 06:34:23;;;;;;;1.05;0.95;;;18.40;48.40;;;;;;6170829;23;20218;-85
2022/04/14 06:36:49;;;;;;;1.30;0.95;;;18.40;48.40;;;;;;6195731;23;20204;-85
2022/04/14 06:39:15;;;;;;;1.50;1.20;;;18.40;48.20;;;;;;6220562;23;20180;-85
2022/04/14 06:41:40;;;;;;;1.80;1.00;;;18.40;48.10;;;;;;6220365;23;20134;-86
2022/04/14 06:44:07;;;;;;;1.40;1.17;;;18.50;48.30;;;;;;6173038;23;20223;-84
2022/04/14 06:46:33;;;;;;;1.00;0.90;;;18.40;48.00;;;;;;6196128;23;20137;-85
2022/04/14 06:48:59;;;;;;;1.20;0.90;;;18.40;48.50;;;;;;6196548;23;20137;-85
2022/04/14 06:51:24;;;;;;;1.00;0.90;;;18.40;48.20;;;;;;6171771;23;20138;-85
2022/04/14 06:53:52;;;;;;;1.38;1.00;;;18.40;47.80;;;;;;6221450;23;20137;-85
2022/04/14 06:56:18;;;;;;;2.53;1.25;;;18.40;48.10;;;;;;6198726;23;20157;-85
2022/04/14 06:58:44;;;;;;;1.70;1.02;;;18.50;48.50;;;;;;6197856;23;20137;-86
2022/04/14 07:01:10;;;;;;;1.00;0.90;;;18.50;48.30;;;;;;6172396;23;20196;-85
2022/04/14 07:03:36;;;;;;;1.38;1.10;;;18.40;48.50;;;;;;6248582;23;20136;-86
2022/04/14 07:06:01;;;;;;;2.00;1.02;;;18.40;48.00;;;;;;6196119;23;20153;-85
2022/04/14 07:08:27;;;;;;;1.33;1.10;;;18.40;48.50;;;;;;6195421;23;20462;-84
2022/04/14 07:10:53;;;;;;;1.50;1.20;;;18.50;48.70;;;;;;6219626;23;20140;-85
2022/04/14 07:13:23;;;;;;;2.33;0.93;;;18.40;48.20;;;;;;6194456;23;20181;-85
2022/04/14 07:15:49;;;;;;;1.52;1.10;;;18.40;48.40;;;;;;6143664;23;20176;-85
2022/04/14 07:18:15;;;;;;;1.38;1.05;;;18.50;48.50;;;;;;6218846;23;20612;-86
2022/04/14 07:20:41;;;;;;;1.40;1.10;;;18.50;48.30;;;;;;6193845;23;20137;-85
2022/04/14 07:23:07;;;;;;;1.50;1.08;;;18.50;48.70;;;;;;6245886;23;20554;-85
2022/04/14 07:25:33;;;;;;;2.50;1.05;;;18.40;48.80;;;;;;6219036;23;20469;-85
2022/04/14 07:28:00;;;;;;;1.52;1.23;;;18.50;48.50;;;;;;6220321;23;20137;-85
2022/04/14 07:30:26;;;;;;;1.40;1.10;;;18.50;48.00;;;;;;6220533;23;20136;-85
2022/04/14 07:32:53;;;;;;;2.45;1.10;;;18.40;48.30;;;;;;6195200;23;20154;-84
2022/04/14 07:35:22;;;;;;;2.45;1.20;;;18.50;48.50;;;;;;6220724;23;20140;-85
2022/04/14 07:37:48;;;;;;;1.90;1.27;;;18.50;48.60;;;;;;6248640;23;20313;-85
2022/04/14 07:40:14;;;;;;;1.95;1.30;;;18.50;48.10;;;;;;6221682;23;20130;-85
2022/04/14 07:42:43;;;;;;;2.00;1.20;;;18.50;48.40;;;;;;6222947;23;20138;-85
2022/04/14 07:45:10;;;;;;;1.27;1.10;;;18.50;49.00;;;;;;6195257;23;20168;-86
2022/04/14 07:47:36;;;;;;;4.50;1.38;;;18.50;48.80;;;;;;6221332;23;20475;-84
2022/04/14 07:50:03;;;;;;;3.67;1.20;;;18.50;48.90;;;;;;6195471;23;20203;-85
2022/04/14 07:52:29;;;;;;;1.48;1.00;;;18.40;48.60;;;;;;6221840;23;20129;-84
2022/04/14 07:54:55;;;;;;;4.30;1.55;;;18.50;48.60;;;;;;6248559;23;20613;-85
2022/04/14 07:57:21;;;;;;;1.88;1.20;;;18.50;48.90;;;;;;6248461;23;20195;-84
2022/04/14 07:59:46;;;;;;;2.78;1.20;;;18.50;48.40;;;;;;6220702;23;20191;-84
2022/04/14 08:02:12;;;;;;;4.22;1.52;;;18.60;48.20;;;;;;6220859;23;20130;-85
2022/04/14 08:04:38;;;;;;;2.58;1.40;;;18.60;48.60;;;;;;6221254;23;20156;-85
2022/04/14 08:07:05;;;;;;;4.43;1.20;;;18.60;48.70;;;;;;6221014;23;20473;-85
2022/04/14 08:09:35;;;;;;;3.85;1.33;;;18.60;49.10;;;;;;6247277;23;20134;-86
2022/04/14 08:12:00;;;;;;;3.08;1.35;;;18.50;48.90;;;;;;6170219;23;20153;-84
2022/04/14 08:14:30;;;;;;;3.17;1.42;;;18.60;48.70;;;;;;6220689;23;20432;-85
2022/04/14 08:16:59;;;;;;;4.38;1.80;;;18.60;48.70;;;;;;6144965;23;20192;-85
2022/04/14 08:19:25;;;;;;;3.35;1.38;;;18.50;48.40;;;;;;6220845;23;20157;-84
2022/04/14 08:21:51;;;;;;;7.82;1.60;;;18.50;49.00;;;;;;6195803;23;20149;-84
2022/04/14 08:24:16;;;;;;;9.05;1.88;;;18.60;48.40;;;;;;6170242;23;20168;-85
2022/04/14 08:26:45;;;;;;;1.85;1.20;;;18.60;49.20;;;;;;6219597;23;20169;-86
2022/04/14 08:29:12;;;;;;;3.03;1.42;;;18.50;48.60;;;;;;6220278;23;20157;-86
2022/04/14 08:31:39;;;;;;;6.13;1.50;;;18.60;48.70;;;;;;6194396;23;20141;-85
2022/04/14 08:34:05;;;;;;;2.85;1.40;;;18.60;48.60;;;;;;6194284;23;20505;-86
2022/04/14 08:36:35;;;;;;;1.95;1.42;;;18.60;48.80;;;;;;6168312;23;20165;-86
2022/04/14 08:39:01;;;;;;;5.22;1.38;;;18.60;48.70;;;;;;6145935;23;20208;-85
2022/04/14 08:41:29;;;;;;;6.40;1.58;;;18.70;49.10;;;;;;6219270;23;20561;-85
2022/04/14 08:44:00;;;;;;;4.57;1.55;;;18.60;48.80;;;;;;6194244;23;20489;-84
2022/04/14 08:46:35;;;;;;;2.38;1.40;;;18.60;48.60;;;;;;6194663;23;20607;-85
2022/04/14 08:49:11;;;;;;;2.78;1.40;;;18.70;49.20;;;;;;6168999;23;20576;-85
2022/04/14 08:51:46;;;;;;;3.05;1.25;;;18.60;48.80;;;;;;6168346;23;20193;-86
2022/04/14 08:54:22;;;;;;;4.88;1.50;;;18.70;48.90;;;;;;6143910;23;20211;-85
2022/04/14 08:56:58;;;;;;;4.40;1.40;;;18.70;48.70;;;;;;6168668;23;20181;-86
2022/04/14 08:59:33;;;;;;;2.67;1.63;;;18.70;49.00;;;;;;6145291;23;20152;-86
2022/04/14 09:02:19;;;;;;;6.38;1.48;;;18.70;48.70;;;;;;6143760;23;20196;-86
2022/04/14 09:05:03;;;;;;;5.88;1.35;;;18.70;49.20;;;;;;6128365;23;20154;-85
2022/04/14 09:07:38;;;;;;;3.50;1.58;;;18.70;49.50;;;;;;6119624;23;20164;-85
2022/04/14 09:10:13;;;;;;;3.53;1.30;;;18.70;49.20;;;;;;6144797;23;20148;-84
2022/04/14 09:12:48;;;;;;;1.30;1.20;;;18.70;48.90;;;;;;6119745;23;20188;-86
2022/04/14 09:15:23;;;;;;;3.28;1.48;;;18.70;49.20;;;;;;6168718;23;20528;-86
2022/04/14 09:17:56;;;;;;;4.72;1.60;;;18.70;49.20;;;;;;6119711;23;20524;-86
2022/04/14 09:20:42;;;;;;;2.47;1.35;;;18.70;49.40;;;;;;6168860;23;20149;-85
2022/04/14 09:23:21;;;;;;;3.80;1.33;;;18.70;49.20;;;;;;6218794;23;20481;-85
2022/04/14 09:26:21;;;;;;;2.10;1.48;;;18.70;48.60;;;;;;6170177;23;20149;-86
2022/04/14 09:29:10;;;;;;;3.90;1.70;;;18.70;48.90;;;;;;6170450;23;20231;-84
2022/04/14 09:31:51;;;;;;;2.97;1.42;;;18.70;48.90;;;;;;6172262;23;20607;-86
2022/04/14 09:34:41;;;;;;;7.05;1.40;;;18.70;49.30;;;;;;6171164;23;20153;-87
2022/04/14 09:37:13;;;;;;;2.30;1.60;;;18.70;49.30;;;;;;6195587;23;20177;-85
2022/04/14 09:39:56;;;;;;;3.95;1.45;;;18.70;48.50;;;;;;6146499;23;20155;-86
2022/04/14 09:42:35;;;;;;;9.85;1.60;;;18.70;48.90;;;;;;6146818;23;20145;-86
2022/04/14 09:45:22;;;;;;;4.50;1.70;;;18.80;48.70;;;;;;6170890;23;20160;-85
2022/04/14 09:47:54;;;;;;;4.40;1.60;;;18.80;49.00;;;;;;6195775;23;20177;-86
2022/04/14 09:50:43;;;;;;;3.95;1.60;;;18.70;49.10;;;;;;6111415;23;20161;-87
2022/04/14 09:53:14;;;;;;;3.45;1.35;;;18.70;49.20;;;;;;6138416;23;20199;-84
2022/04/14 09:55:44;;;;;;;6.13;1.85;;;18.80;49.20;;;;;;6087277;23;20155;-87
2022/04/14 09:58:15;;;;;;;4.82;2.17;;;18.70;48.80;;;;;;6134441;23;20391;-86
2022/04/14 10:00:44;;;;;;;3.17;1.30;;;18.80;49.10;;;;;;6158706;23;20566;-85
2022/04/14 10:03:17;;;;;;;4.65;1.80;;;18.70;48.70;;;;;;6135174;23;20168;-85
2022/04/14 10:05:47;;;;;;;4.97;1.60;;;18.80;48.90;;;;;;6088769;23;20227;-85
2022/04/14 10:08:16;;;;;;;4.43;1.55;;;18.80;49.10;;;;;;6136106;23;20154;-87
2022/04/14 10:10:46;;;;;;;7.38;1.60;;;18.80;49.20;;;;;;6088036;23;20158;-86
2022/04/14 10:13:17;;;;;;;3.78;1.60;;;18.80;49.30;;;;;;6087596;23;20162;-87
2022/04/14 10:15:46;;;;;;;1.95;1.33;;;18.80;49.70;;;;;;6087482;23;20147;-86
2022/04/14 10:18:37;;;;;;;3.45;1.67;;;18.70;49.80;;;;;;6135600;23;20206;-88
2022/04/14 10:21:05;;;;;;;3.85;1.30;;;18.70;49.10;;;;;;6179389;23;20145;-85
2022/04/14 10:23:32;;;;;;;3.75;1.40;;;18.80;49.40;;;;;;6220866;23;20137;-86
2022/04/14 10:25:59;;;;;;;5.43;1.52;;;18.80;49.50;;;;;;6144941;23;20154;-86
2022/04/14 10:28:26;;;;;;;3.75;1.50;;;18.70;49.40;;;;;;6145783;23;20236;-86
2022/04/14 10:30:55;;;;;;;2.95;1.63;;;18.80;49.20;;;;;;6196880;23;20216;-85
2022/04/14 10:33:22;;;;;;;3.55;1.50;;;18.70;49.30;;;;;;6222252;23;20232;-85
2022/04/14 10:35:53;;;;;;;3.90;1.60;;;18.80;49.10;;;;;;6195651;23;20137;-84
2022/04/14 10:38:30;;;;;;;7.75;1.98;;;18.80;48.70;;;;;;6145541;23;20196;-85
2022/04/14 10:41:13;;;;;;;5.40;1.95;;;18.80;49.00;;;;;;6220747;23;20472;-85
2022/04/14 10:43:41;;;;;;;5.82;1.52;;;18.80;49.20;;;;;;6248279;23;20130;-83
2022/04/14 10:46:07;;;;;;;6.18;1.73;;;18.70;48.70;;;;;;6223584;23;20172;-85
2022/04/14 10:48:34;;;;;;;3.00;1.60;;;18.80;49.50;;;;;;6221662;23;20140;-85
2022/04/14 10:51:23;;;;;;;5.10;1.70;;;18.80;49.40;;;;;;6221136;23;20213;-87
2022/04/14 10:53:54;;;;;;;2.50;1.60;;;18.70;49.20;;;;;;6196269;23;20148;-86
2022/04/14 10:56:42;;;;;;;3.65;1.60;;;18.80;49.40;;;;;;6222243;23;20138;-84
2022/04/14 10:59:14;;;;;;;7.38;1.75;;;18.80;49.30;;;;;;6225673;23;20569;-86
2022/04/14 11:01:57;;;;;;;2.78;1.67;;;18.80;49.40;;;;;;6170489;23;20197;-85
2022/04/14 11:04:30;;;;;;;2.95;1.48;;;18.70;49.30;;;;;;6171514;23;20149;-86
2022/04/14 11:06:59;;;;;;;2.38;1.58;;;18.80;49.40;;;;;;6146076;23;20516;-85
2022/04/14 11:09:46;;;;;;;3.45;1.60;;;18.80;49.20;;;;;;6247630;23;20126;-85
2022/04/14 11:12:29;;;;;;;2.75;1.73;;;18.80;49.60;;;;;;6200833;23;20157;-85
2022/04/14 11:15:01;;;;;;;2.47;1.80;;;18.80;49.30;;;;;;6123795;23;20156;-85
2022/04/14 11:17:51;;;;;;;4.80;1.95;;;18.80;49.60;;;;;;6123432;23;20188;-85
2022/04/14 11:20:22;;;;;;;2.35;1.60;;;18.70;49.60;;;;;;6222537;23;20165;-86
2022/04/14 11:23:21;;;;;;;1.67;1.40;;;18.70;49.50;;;;;;6171892;23;20150;-86
2022/04/14 11:25:52;;;;;;;4.32;1.50;;;18.80;49.30;;;;;;6170842;23;20612;-85
2022/04/14 11:28:26;;;;;;;2.45;1.50;;;18.80;49.50;;;;;;6173368;23;20146;-86
2022/04/14 11:31:27;;;;;;;4.00;1.83;;;18.80;49.70;;;;;;6171496;23;20175;-84
2022/04/14 11:33:54;;;;;;;1.65;1.48;;;18.80;49.20;;;;;;6222150;23;20145;-85
2022/04/14 11:36:21;;;;;;;1.98;1.60;;;18.70;49.20;;;;;;6172166;23;20142;-88
2022/04/14 11:38:52;;;;;;;2.35;1.90;;;18.80;49.10;;;;;;6197184;23;20165;-84
2022/04/14 11:41:38;;;;;;;5.03;1.85;;;18.80;49.00;;;;;;6222412;23;20141;-87
2022/04/14 11:44:07;;;;;;;3.72;1.65;;;18.80;49.50;;;;;;6222551;23;20199;-86
2022/04/14 11:46:34;;;;;;;4.53;1.75;;;18.80;49.80;;;;;;6195386;23;20160;-86
2022/04/14 11:49:01;;;;;;;2.15;1.40;;;18.80;49.70;;;;;;6169845;23;20228;-86
2022/04/14 11:51:27;;;;;;;2.67;1.60;;;18.80;49.80;;;;;;6170129;23;20148;-86
2022/04/14 11:53:55;;;;;;;2.03;1.50;;;18.80;49.70;;;;;;6171139;23;20525;-85
2022/04/14 11:56:23;;;;;;;2.08;1.38;;;18.80;49.40;;;;;;6173770;23;20484;-87
2022/04/14 11:58:49;;;;;;;4.13;1.58;;;18.80;49.80;;;;;;6172824;23;20176;-86
2022/04/14 12:01:19;;;;;;;2.47;1.60;;;18.80;49.50;;;;;;6196560;23;20189;-86
2022/04/14 12:03:46;;;;;;;3.88;1.33;;;18.80;50.50;;;;;;6169456;23;20157;-86
2022/04/14 12:06:16;;;;;;;2.67;1.48;;;18.80;49.90;;;;;;6120149;23;20225;-87
2022/04/14 12:08:55;;;;;;;4.90;1.77;;;18.70;49.60;;;;;;6169390;23;20153;-86
2022/04/14 12:11:24;;;;;;;4.10;1.60;;;18.80;49.80;;;;;;6143501;23;20149;-87
2022/04/14 12:13:54;;;;;;;2.80;1.55;;;18.80;49.40;;;;;;6146381;23;20156;-86
2022/04/14 12:16:21;;;;;;;3.08;1.65;;;18.80;49.70;;;;;;6170326;23;20165;-86
2022/04/14 12:18:51;;;;;;;2.53;1.65;;;18.80;50.10;;;;;;6221723;23;20212;-86
2022/04/14 12:21:22;;;;;;;2.63;1.42;;;18.80;50.00;;;;;;6222753;23;20137;-88
2022/04/14 12:23:49;;;;;;;7.50;1.80;;;18.80;50.10;;;;;;6148130;23;20150;-88
2022/04/14 12:26:20;;;;;;;3.83;1.73;;;18.70;50.00;;;;;;6198063;23;20150;-88
2022/04/14 12:28:47;;;;;;;2.65;1.70;;;18.80;49.90;;;;;;6147150;23;20156;-86
2022/04/14 12:31:13;;;;;;;5.07;1.83;;;18.80;49.70;;;;;;6195118;23;20228;-88
2022/04/14 12:33:39;;;;;;;1.85;1.58;;;18.90;49.60;;;;;;6196197;23;20176;-87
2022/04/14 12:36:06;;;;;;;2.10;1.60;;;18.80;49.80;;;;;;6220006;23;20130;-87
2022/04/14 12:38:42;;;;;;;3.47;1.60;;;18.80;49.70;;;;;;6194650;23;20271;-86
2022/04/14 12:41:12;;;;;;;2.40;1.77;;;18.80;49.80;;;;;;6220401;23;20134;-86
2022/04/14 12:43:40;;;;;;;1.83;1.40;;;18.80;49.60;;;;;;6195373;23;20485;-86
2022/04/14 12:46:25;;;;;;;3.85;1.83;;;18.80;49.90;;;;;;6195131;23;20142;-86
2022/04/14 12:49:04;;;;;;;2.97;1.80;;;18.80;49.60;;;;;;6220909;23;20241;-87
2022/04/14 12:51:31;;;;;;;1.92;1.60;;;18.80;49.30;;;;;;6195393;23;20191;-87
2022/04/14 12:53:57;;;;;;;4.60;1.80;;;18.90;49.30;;;;;;6222339;23;20125;-88
2022/04/14 12:56:28;;;;;;;2.60;1.58;;;18.90;49.20;;;;;;6220364;23;20275;-86
2022/04/14 12:59:13;;;;;;;3.47;1.75;;;18.90;48.90;;;;;;6120849;23;20188;-85